createdAt,value
2018-04-24T00:00:17.739Z,1015.9
2018-04-24T00:01:39.804Z,1015.88
2018-04-24T00:03:01.899Z,1015.91
2018-04-24T00:04:23.708Z,1015.92
2018-04-24T00:05:45.518Z,1015.9
2018-04-24T00:07:07.312Z,1015.85
2018-04-24T00:08:28.839Z,1015.82
2018-04-24T00:09:50.717Z,1015.77
2018-04-24T00:11:12.934Z,1015.71
2018-04-24T00:12:34.716Z,1015.65
2018-04-24T00:13:56.764Z,1015.66
2018-04-24T00:15:18.317Z,1015.69
2018-04-24T00:16:40.115Z,1015.66
2018-04-24T00:18:01.907Z,1015.64
2018-04-24T00:19:23.887Z,1015.62
2018-04-24T00:20:45.952Z,1015.61
2018-04-24T00:22:08.004Z,1015.61
2018-04-24T00:23:30.060Z,1015.55
2018-04-24T00:24:52.116Z,1015.53
2018-04-24T00:26:14.012Z,1015.45
2018-04-24T00:27:36.172Z,1015.46
2018-04-24T00:28:58.249Z,1015.45
2018-04-24T00:30:20.146Z,1015.41
2018-04-24T00:31:41.677Z,1015.36
2018-04-24T00:33:03.477Z,1015.31
2018-04-24T00:34:24.524Z,1015.25
2018-04-24T00:35:46.593Z,1015.18
2018-04-24T00:37:08.660Z,1015.2
2018-04-24T00:38:30.448Z,1015.15
2018-04-24T00:39:51.999Z,1015.14
2018-04-24T00:41:14.054Z,1015.09
2018-04-24T00:42:35.594Z,1015.08
2018-04-24T00:43:57.395Z,1015.07
2018-04-24T00:45:19.452Z,1015
2018-04-24T00:46:41.533Z,1015.06
2018-04-24T00:48:03.349Z,1015.1
2018-04-24T00:49:25.430Z,1015.09
2018-04-24T00:50:47.222Z,1015.13
2018-04-24T00:52:09.023Z,1015.11
2018-04-24T00:53:31.100Z,1015.05
2018-04-24T00:54:53.207Z,1014.96
2018-04-24T00:56:15.028Z,1014.98
2018-04-24T00:57:36.821Z,1014.97
2018-04-24T00:58:58.601Z,1014.99
2018-04-24T01:00:20.406Z,1015.05
2018-04-24T01:01:41.934Z,1015.11
2018-04-24T01:03:03.989Z,1015.07
2018-04-24T01:04:25.790Z,1015.09
2018-04-24T01:05:47.561Z,1015.11
2018-04-24T01:07:09.074Z,1015.05
2018-04-24T01:08:30.868Z,1015.07
2018-04-24T01:09:52.674Z,1015.06
2018-04-24T01:11:13.993Z,1015.05
2018-04-24T01:12:35.787Z,1015.1
2018-04-24T01:13:57.577Z,1015.14
2018-04-24T01:15:19.392Z,1015.1
2018-04-24T01:16:41.182Z,1015.14
2018-04-24T01:18:02.727Z,1015.16
2018-04-24T01:19:24.601Z,1015.12
2018-04-24T01:20:46.615Z,1015.14
2018-04-24T01:22:08.675Z,1015.09
2018-04-24T01:23:30.214Z,1015.09
2018-04-24T01:24:52.265Z,1014.98
2018-04-24T01:26:13.545Z,1014.9
2018-04-24T01:27:35.349Z,1014.85
2018-04-24T01:28:56.873Z,1014.81
2018-04-24T01:30:18.675Z,1014.81
2018-04-24T01:31:40.469Z,1014.86
2018-04-24T01:33:02.530Z,1014.84
2018-04-24T01:34:24.592Z,1014.77
2018-04-24T01:35:45.865Z,1014.72
2018-04-24T01:37:07.394Z,1014.61
2018-04-24T01:38:29.451Z,1014.64
2018-04-24T01:39:51.245Z,1014.66
2018-04-24T01:41:13.065Z,1014.67
2018-04-24T01:42:35.124Z,1014.75
2018-04-24T01:43:56.646Z,1014.78
2018-04-24T01:45:18.700Z,1014.9
2018-04-24T01:46:40.227Z,1014.93
2018-04-24T01:48:01.760Z,1014.94
2018-04-24T01:49:23.552Z,1014.93
2018-04-24T01:50:45.082Z,1014.97
2018-04-24T01:52:07.154Z,1014.89
2018-04-24T01:53:29.211Z,1014.82
2018-04-24T01:54:51.014Z,1014.85
2018-04-24T01:56:13.072Z,1014.87
2018-04-24T01:57:34.888Z,1014.84
2018-04-24T01:58:56.679Z,1014.83
2018-04-24T02:00:18.742Z,1014.81
2018-04-24T02:01:40.547Z,1014.78
2018-04-24T02:03:02.397Z,1014.73
2018-04-24T02:04:23.922Z,1014.73
2018-04-24T02:05:45.982Z,1014.64
2018-04-24T02:07:07.504Z,1014.61
2018-04-24T02:08:29.295Z,1014.72
2018-04-24T02:09:51.359Z,1014.76
2018-04-24T02:11:12.895Z,1014.69
2018-04-24T02:12:34.929Z,1014.59
2018-04-24T02:13:56.535Z,1014.65
2018-04-24T02:15:18.061Z,1014.69
2018-04-24T02:16:39.849Z,1014.68
2018-04-24T02:18:01.891Z,1014.72
2018-04-24T02:19:23.674Z,1014.82
2018-04-24T02:20:45.459Z,1014.88
2018-04-24T02:22:07.526Z,1014.92
2018-04-24T02:23:29.592Z,1014.9
2018-04-24T02:24:51.649Z,1014.77
2018-04-24T02:26:13.515Z,1014.7
2018-04-24T02:27:35.305Z,1014.71
2018-04-24T02:28:57.109Z,1014.73
2018-04-24T02:30:19.195Z,1014.77
2018-04-24T02:31:41.247Z,1014.77
2018-04-24T02:33:02.521Z,1014.83
2018-04-24T02:34:24.060Z,1014.85
2018-04-24T02:35:46.117Z,1014.8
2018-04-24T02:37:08.186Z,1014.78
2018-04-24T02:38:29.991Z,1014.9
2018-04-24T02:39:52.040Z,1014.94
2018-04-24T02:41:13.596Z,1014.91
2018-04-24T02:42:35.390Z,1014.83
2018-04-24T02:43:56.926Z,1014.82
2018-04-24T02:45:18.725Z,1014.84
2018-04-24T02:46:40.793Z,1014.78
2018-04-24T02:48:02.341Z,1014.79
2018-04-24T02:49:23.866Z,1014.71
2018-04-24T02:50:45.929Z,1014.63
2018-04-24T02:52:08.000Z,1014.56
2018-04-24T02:53:30.069Z,1014.51
2018-04-24T02:54:52.134Z,1014.49
2018-04-24T02:56:13.924Z,1014.49
2018-04-24T02:57:35.463Z,1014.51
2018-04-24T02:58:56.998Z,1014.58
2018-04-24T03:00:19.049Z,1014.53
2018-04-24T03:01:40.849Z,1014.57
2018-04-24T03:03:02.656Z,1014.53
2018-04-24T03:04:23.926Z,1014.52
2018-04-24T03:05:45.973Z,1014.5
2018-04-24T03:07:08.046Z,1014.51
2018-04-24T03:08:30.104Z,1014.54
2018-04-24T03:09:52.167Z,1014.59
2018-04-24T03:11:14.228Z,1014.58
2018-04-24T03:12:35.783Z,1014.53
2018-04-24T03:13:57.573Z,1014.53
2018-04-24T03:15:19.367Z,1014.52
2018-04-24T03:16:40.636Z,1014.46
2018-04-24T03:18:02.441Z,1014.5
2018-04-24T03:19:24.235Z,1014.49
2018-04-24T03:20:46.304Z,1014.47
2018-04-24T03:22:08.094Z,1014.45
2018-04-24T03:23:29.625Z,1014.44
2018-04-24T03:24:51.160Z,1014.44
2018-04-24T03:26:13.202Z,1014.36
2018-04-24T03:27:35.260Z,1014.42
2018-04-24T03:28:57.052Z,1014.42
2018-04-24T03:30:19.117Z,1014.39
2018-04-24T03:31:40.915Z,1014.4
2018-04-24T03:33:02.707Z,1014.41
2018-04-24T03:34:24.233Z,1014.4
2018-04-24T03:35:45.776Z,1014.34
2018-04-24T03:37:07.324Z,1014.29
2018-04-24T03:38:29.100Z,1014.26
2018-04-24T03:39:51.139Z,1014.24
2018-04-24T03:41:12.927Z,1014.3
2018-04-24T03:42:34.466Z,1014.29
2018-04-24T03:43:56.004Z,1014.32
2018-04-24T03:45:17.794Z,1014.32
2018-04-24T03:46:39.598Z,1014.35
2018-04-24T03:48:01.640Z,1014.3
2018-04-24T03:49:23.452Z,1014.27
2018-04-24T03:50:45.511Z,1014.28
2018-04-24T03:52:07.041Z,1014.24
2018-04-24T03:53:29.106Z,1014.27
2018-04-24T03:54:50.903Z,1014.24
2018-04-24T03:56:12.460Z,1014.27
2018-04-24T03:57:34.251Z,1014.26
2018-04-24T03:58:56.338Z,1014.29
2018-04-24T04:00:18.131Z,1014.27
2018-04-24T04:01:39.938Z,1014.25
2018-04-24T04:03:01.752Z,1014.19
2018-04-24T04:04:23.547Z,1014.15
2018-04-24T04:05:45.337Z,1014.22
2018-04-24T04:07:07.128Z,1014.25
2018-04-24T04:08:29.249Z,1014.21
2018-04-24T04:09:51.307Z,1014.11
2018-04-24T04:11:13.352Z,1014.1
2018-04-24T04:12:35.397Z,1014.09
2018-04-24T04:13:57.465Z,1014.02
2018-04-24T04:15:19.296Z,1014.11
2018-04-24T04:16:40.813Z,1014.13
2018-04-24T04:18:02.407Z,1014.15
2018-04-24T04:19:24.464Z,1014.11
2018-04-24T04:20:46.251Z,1014.09
2018-04-24T04:22:08.305Z,1014.08
2018-04-24T04:23:30.223Z,1014.07
2018-04-24T04:24:51.754Z,1014.06
2018-04-24T04:26:13.838Z,1014
2018-04-24T04:27:35.893Z,1013.98
2018-04-24T04:28:57.432Z,1013.94
2018-04-24T04:30:18.990Z,1013.98
2018-04-24T04:31:41.056Z,1014.07
2018-04-24T04:33:02.849Z,1014.02
2018-04-24T04:34:24.128Z,1014.01
2018-04-24T04:35:46.195Z,1014.05
2018-04-24T04:37:07.735Z,1014.09
2018-04-24T04:38:29.532Z,1014.09
2018-04-24T04:39:51.608Z,1013.97
2018-04-24T04:41:13.421Z,1014.03
2018-04-24T04:42:35.339Z,1014.12
2018-04-24T04:43:57.144Z,1014.05
2018-04-24T04:45:18.944Z,1014.07
2018-04-24T04:46:40.746Z,1014.08
2018-04-24T04:48:02.804Z,1014.11
2018-04-24T04:49:24.964Z,1014.14
2018-04-24T04:50:46.780Z,1014.13
2018-04-24T04:52:08.864Z,1014.22
2018-04-24T04:53:30.406Z,1014.16
2018-04-24T04:54:52.485Z,1014.26
2018-04-24T04:56:14.643Z,1014.18
2018-04-24T04:57:36.779Z,1014.19
2018-04-24T04:58:58.840Z,1014.18
2018-04-24T05:00:20.640Z,1014.15
2018-04-24T05:01:42.710Z,1014.17
2018-04-24T05:03:04.785Z,1014.19
2018-04-24T05:04:26.065Z,1014.13
2018-04-24T05:05:48.142Z,1014.19
2018-04-24T05:07:10.200Z,1014.13
2018-04-24T05:08:31.487Z,1014.18
2018-04-24T05:09:53.011Z,1014.17
2018-04-24T05:11:14.810Z,1014.15
2018-04-24T05:12:36.343Z,1014.1
2018-04-24T05:13:57.890Z,1014.09
2018-04-24T05:15:19.955Z,1014.1
2018-04-24T05:16:41.770Z,1014.09
2018-04-24T05:18:03.575Z,1014.22
2018-04-24T05:19:25.654Z,1014.18
2018-04-24T05:20:47.465Z,1014.1
2018-04-24T05:22:09.307Z,1014.15
2018-04-24T05:23:31.396Z,1014.2
2018-04-24T05:24:53.467Z,1014.29
2018-04-24T05:26:15.280Z,1014.22
2018-04-24T05:27:37.177Z,1014.27
2018-04-24T05:28:59.236Z,1014.26
2018-04-24T05:30:20.777Z,1014.23
2018-04-24T05:31:42.576Z,1014.26
2018-04-24T05:33:04.374Z,1014.22
2018-04-24T05:34:26.187Z,1014.21
2018-04-24T05:35:48.281Z,1014.18
2018-04-24T05:37:10.448Z,1014.14
2018-04-24T05:38:32.502Z,1014.11
2018-04-24T05:39:54.307Z,1014.11
2018-04-24T05:41:16.379Z,1014.06
2018-04-24T05:42:37.659Z,1014.15
2018-04-24T05:43:59.467Z,1014.2
2018-04-24T05:45:21.057Z,1014.24
2018-04-24T05:46:42.615Z,1014.21
2018-04-24T05:48:04.425Z,1014.2
2018-04-24T05:49:26.481Z,1014.22
2018-04-24T05:50:48.276Z,1014.25
2018-04-24T05:52:09.829Z,1014.3
2018-04-24T05:53:31.741Z,1014.3
2018-04-24T05:54:53.797Z,1014.21
2018-04-24T05:56:15.615Z,1014.23
2018-04-24T05:57:37.421Z,1014.29
2018-04-24T05:58:59.668Z,1014.26
2018-04-24T06:00:21.740Z,1014.36
2018-04-24T06:01:43.556Z,1014.29
2018-04-24T06:03:05.385Z,1014.33
2018-04-24T06:04:27.507Z,1014.36
2018-04-24T06:05:48.521Z,1014.39
2018-04-24T06:07:10.330Z,1014.36
2018-04-24T06:08:32.162Z,1014.44
2018-04-24T06:09:54.256Z,1014.42
2018-04-24T06:11:16.058Z,1014.35
2018-04-24T06:12:37.856Z,1014.32
2018-04-24T06:13:59.400Z,1014.38
2018-04-24T06:15:21.207Z,1014.34
2018-04-24T06:16:42.996Z,1014.45
2018-04-24T06:18:05.081Z,1014.45
2018-04-24T06:19:27.159Z,1014.45
2018-04-24T06:20:48.970Z,1014.4
2018-04-24T06:22:11.027Z,1014.42
2018-04-24T06:23:33.161Z,1014.44
2018-04-24T06:24:54.698Z,1014.43
2018-04-24T06:26:16.779Z,1014.46
2018-04-24T06:27:38.850Z,1014.44
2018-04-24T06:29:00.900Z,1014.44
2018-04-24T06:30:22.178Z,1014.44
2018-04-24T06:31:44.238Z,1014.47
2018-04-24T06:33:06.299Z,1014.47
2018-04-24T06:34:28.089Z,1014.46
2018-04-24T06:35:49.891Z,1014.45
2018-04-24T06:37:12.230Z,1014.41
2018-04-24T06:38:34.372Z,1014.39
2018-04-24T06:39:56.443Z,1014.46
2018-04-24T06:41:18.512Z,1014.42
2018-04-24T06:42:40.319Z,1014.44
2018-04-24T06:44:02.391Z,1014.48
2018-04-24T06:45:24.194Z,1014.53
2018-04-24T06:46:45.745Z,1014.45
2018-04-24T06:48:07.277Z,1014.5
2018-04-24T06:49:29.345Z,1014.46
2018-04-24T06:50:51.137Z,1014.47
2018-04-24T06:52:12.960Z,1014.44
2018-04-24T06:53:34.774Z,1014.48
2018-04-24T06:54:56.620Z,1014.5
2018-04-24T06:56:18.522Z,1014.47
2018-04-24T06:57:40.339Z,1014.5
2018-04-24T06:59:02.413Z,1014.56
2018-04-24T07:00:24.487Z,1014.53
2018-04-24T07:01:47.183Z,1014.53
2018-04-24T07:03:08.979Z,1014.5
2018-04-24T07:04:30.796Z,1014.58
2018-04-24T07:05:52.866Z,1014.58
2018-04-24T07:07:14.962Z,1014.52
2018-04-24T07:08:37.010Z,1014.53
2018-04-24T07:09:58.542Z,1014.53
2018-04-24T07:11:20.370Z,1014.44
2018-04-24T07:12:42.451Z,1014.48
2018-04-24T07:14:04.536Z,1014.52
2018-04-24T07:15:26.359Z,1014.59
2018-04-24T07:16:47.966Z,1014.64
2018-04-24T07:18:09.947Z,1014.64
2018-04-24T07:19:32.028Z,1014.68
2018-04-24T07:20:53.848Z,1014.71
2018-04-24T07:22:15.736Z,1014.69
2018-04-24T07:23:37.574Z,1014.64
2018-04-24T07:24:59.371Z,1014.65
2018-04-24T07:26:21.433Z,1014.67
2018-04-24T07:27:43.518Z,1014.71
2018-04-24T07:29:05.582Z,1014.7
2018-04-24T07:30:27.379Z,1014.64
2018-04-24T07:31:49.198Z,1014.7
2018-04-24T07:33:11.258Z,1014.72
2018-04-24T07:34:33.345Z,1014.71
2018-04-24T07:35:54.625Z,1014.7
2018-04-24T07:37:16.427Z,1014.67
2018-04-24T07:38:38.234Z,1014.67
2018-04-24T07:40:00.037Z,1014.64
2018-04-24T07:41:21.574Z,1014.66
2018-04-24T07:42:43.651Z,1014.65
2018-04-24T07:44:05.452Z,1014.72
2018-04-24T07:45:27.517Z,1014.7
2018-04-24T07:46:49.330Z,1014.74
2018-04-24T07:48:11.252Z,1014.71
2018-04-24T07:49:33.309Z,1014.75
2018-04-24T07:50:54.844Z,1014.81
2018-04-24T07:52:16.926Z,1014.77
2018-04-24T07:53:39.002Z,1014.85
2018-04-24T07:55:00.809Z,1014.87
2018-04-24T07:56:22.893Z,1014.83
2018-04-24T07:57:44.964Z,1014.83
2018-04-24T07:59:07.027Z,1014.81
2018-04-24T08:00:29.255Z,1014.9
2018-04-24T08:01:51.054Z,1014.84
2018-04-24T08:03:13.108Z,1014.89
2018-04-24T08:04:34.908Z,1014.88
2018-04-24T08:05:56.984Z,1014.84
2018-04-24T08:07:18.836Z,1014.87
2018-04-24T08:08:40.641Z,1014.86
2018-04-24T08:10:02.463Z,1014.82
2018-04-24T08:11:23.997Z,1014.83
2018-04-24T08:12:45.810Z,1014.75
2018-04-24T08:14:07.622Z,1014.75
2018-04-24T08:15:29.689Z,1014.85
2018-04-24T08:16:51.754Z,1014.88
2018-04-24T08:18:13.561Z,1014.78
2018-04-24T08:19:35.635Z,1014.78
2018-04-24T08:20:57.172Z,1014.83
2018-04-24T08:22:19.249Z,1014.78
2018-04-24T08:23:41.063Z,1014.73
2018-04-24T08:25:03.118Z,1014.7
2018-04-24T08:26:25.188Z,1014.78
2018-04-24T08:27:47.295Z,1014.77
2018-04-24T08:29:08.847Z,1014.78
2018-04-24T08:30:30.652Z,1014.77
2018-04-24T08:31:52.461Z,1014.73
2018-04-24T08:33:14.475Z,1014.66
2018-04-24T08:34:36.568Z,1014.67
2018-04-24T08:36:30.257Z,1014.77
2018-04-24T08:37:52.327Z,1014.72
2018-04-24T08:39:14.393Z,1014.8
2018-04-24T08:40:36.452Z,1014.76
2018-04-24T08:41:58.278Z,1014.75
2018-04-24T08:43:20.090Z,1014.75
2018-04-24T08:44:42.150Z,1014.74
2018-04-24T08:46:03.942Z,1014.75
2018-04-24T08:47:26.027Z,1014.84
2018-04-24T08:48:47.864Z,1014.91
2018-04-24T08:50:09.652Z,1014.92
2018-04-24T08:51:31.458Z,1015.03
2018-04-24T08:52:53.265Z,1015
2018-04-24T08:54:14.919Z,1015.06
2018-04-24T08:55:36.986Z,1015.05
2018-04-24T08:56:58.806Z,1015.02
2018-04-24T08:58:20.655Z,1015.05
2018-04-24T08:59:41.917Z,1015.1
2018-04-24T09:01:03.992Z,1015.12
2018-04-24T09:02:26.046Z,1015.14
2018-04-24T09:03:47.843Z,1015.19
2018-04-24T09:05:09.914Z,1015.11
2018-04-24T09:06:32.002Z,1015.1
2018-04-24T09:07:53.791Z,1015.13
2018-04-24T09:09:15.591Z,1015.15
2018-04-24T09:10:37.649Z,1015.1
2018-04-24T09:11:59.713Z,1015.1
2018-04-24T09:13:21.517Z,1015.18
2018-04-24T09:14:42.802Z,1015.22
2018-04-24T09:16:04.617Z,1015.23
2018-04-24T09:17:26.687Z,1015.29
2018-04-24T09:18:48.219Z,1015.32
2018-04-24T09:20:10.025Z,1015.28
2018-04-24T09:21:32.091Z,1015.28
2018-04-24T09:22:53.366Z,1015.31
2018-04-24T09:24:15.191Z,1015.33
2018-04-24T09:25:37.259Z,1015.27
2018-04-24T09:26:58.579Z,1015.28
2018-04-24T09:28:20.906Z,1015.34
2018-04-24T09:29:42.739Z,1015.35
2018-04-24T09:31:04.825Z,1015.36
2018-04-24T09:32:26.657Z,1015.36
2018-04-24T09:33:48.319Z,1015.38
2018-04-24T09:35:09.865Z,1015.42
2018-04-24T09:36:31.686Z,1015.45
2018-04-24T09:37:52.995Z,1015.43
2018-04-24T09:39:15.064Z,1015.46
2018-04-24T09:40:36.873Z,1015.41
2018-04-24T09:41:58.678Z,1015.42
2018-04-24T09:43:20.741Z,1015.46
2018-04-24T09:44:42.558Z,1015.56
2018-04-24T09:46:04.642Z,1015.52
2018-04-24T09:47:26.722Z,1015.51
2018-04-24T09:48:48.078Z,1015.46
2018-04-24T09:50:10.488Z,1015.47
2018-04-24T09:51:32.293Z,1015.45
2018-04-24T09:52:53.828Z,1015.48
2018-04-24T09:54:15.114Z,1015.38
2018-04-24T09:55:36.903Z,1015.42
2018-04-24T09:56:58.698Z,1015.37
2018-04-24T09:58:20.763Z,1015.37
2018-04-24T09:59:42.627Z,1015.38
2018-04-24T10:01:04.684Z,1015.33
2018-04-24T10:02:26.766Z,1015.33
2018-04-24T10:03:48.563Z,1015.35
2018-04-24T10:05:10.113Z,1015.28
2018-04-24T10:06:31.923Z,1015.31
2018-04-24T10:07:54.018Z,1015.27
2018-04-24T10:09:15.817Z,1015.3
2018-04-24T10:10:37.884Z,1015.31
2018-04-24T10:11:59.694Z,1015.29
2018-04-24T10:13:21.832Z,1015.28
2018-04-24T10:14:43.122Z,1015.28
2018-04-24T10:16:04.923Z,1015.27
2018-04-24T10:17:26.761Z,1015.26
2018-04-24T10:18:48.295Z,1015.31
2018-04-24T10:20:10.382Z,1015.28
2018-04-24T10:21:32.199Z,1015.31
2018-04-24T10:22:54.008Z,1015.31
2018-04-24T10:24:16.165Z,1015.3
2018-04-24T10:25:37.984Z,1015.29
2018-04-24T10:27:00.068Z,1015.26
2018-04-24T10:28:21.674Z,1015.31
2018-04-24T10:29:43.496Z,1015.33
2018-04-24T10:31:04.781Z,1015.27
2018-04-24T10:32:26.604Z,1015.25
2018-04-24T10:33:48.149Z,1015.33
2018-04-24T10:35:10.213Z,1015.33
2018-04-24T10:36:32.025Z,1015.39
2018-04-24T10:37:54.105Z,1015.42
2018-04-24T10:39:16.195Z,1015.41
2018-04-24T10:40:38.289Z,1015.35
2018-04-24T10:41:59.838Z,1015.38
2018-04-24T10:43:21.673Z,1015.33
2018-04-24T10:44:43.539Z,1015.32
2018-04-24T10:46:05.629Z,1015.28
2018-04-24T10:47:27.703Z,1015.3
2018-04-24T10:48:49.770Z,1015.31
2018-04-24T10:50:11.859Z,1015.33
2018-04-24T10:51:33.953Z,1015.38
2018-04-24T10:52:56.325Z,1015.44
2018-04-24T10:54:18.389Z,1015.35
2018-04-24T10:55:40.199Z,1015.37
2018-04-24T10:57:02.579Z,1015.4
2018-04-24T10:58:24.409Z,1015.45
2018-04-24T10:59:45.957Z,1015.48
2018-04-24T11:01:08.046Z,1015.5
2018-04-24T11:02:29.852Z,1015.53
2018-04-24T11:03:51.992Z,1015.51
2018-04-24T11:05:14.056Z,1015.49
2018-04-24T11:06:35.924Z,1015.52
2018-04-24T11:07:57.843Z,1015.5
2018-04-24T11:09:19.667Z,1015.49
2018-04-24T11:10:41.466Z,1015.55
2018-04-24T11:12:03.258Z,1015.53
2018-04-24T11:13:25.336Z,1015.59
2018-04-24T11:14:47.133Z,1015.56
2018-04-24T11:16:09.229Z,1015.68
2018-04-24T11:17:31.313Z,1015.6
2018-04-24T11:18:52.862Z,1015.62
2018-04-24T11:20:14.929Z,1015.64
2018-04-24T11:21:36.992Z,1015.66
2018-04-24T11:22:58.281Z,1015.7
2018-04-24T11:24:20.090Z,1015.61
2018-04-24T11:25:41.921Z,1015.69
2018-04-24T11:27:03.991Z,1015.71
2018-04-24T11:28:25.575Z,1015.75
2018-04-24T11:29:47.652Z,1015.83
2018-04-24T11:31:09.475Z,1015.79
2018-04-24T11:32:31.314Z,1015.75
2018-04-24T11:33:53.389Z,1015.8
2018-04-24T11:35:15.606Z,1015.78
2018-04-24T11:36:37.235Z,1015.84
2018-04-24T11:37:59.034Z,1015.93
2018-04-24T11:39:21.133Z,1015.83
2018-04-24T11:40:43.217Z,1015.83
2018-04-24T11:42:05.278Z,1015.78
2018-04-24T11:43:27.086Z,1015.78
2018-04-24T11:44:49.018Z,1015.74
2018-04-24T11:46:10.849Z,1015.71
2018-04-24T11:47:32.676Z,1015.84
2018-04-24T11:48:54.503Z,1015.78
2018-04-24T11:50:16.384Z,1015.78
2018-04-24T11:51:38.193Z,1015.7
2018-04-24T11:53:00.281Z,1015.72
2018-04-24T11:54:22.096Z,1015.76
2018-04-24T11:55:43.906Z,1015.69
2018-04-24T11:57:05.995Z,1015.74
2018-04-24T11:58:27.886Z,1015.71
2018-04-24T11:59:49.990Z,1015.76
2018-04-24T12:01:12.072Z,1015.76
2018-04-24T12:02:34.209Z,1015.67
2018-04-24T12:03:55.958Z,1015.65
2018-04-24T12:05:17.520Z,1015.63
2018-04-24T12:06:39.582Z,1015.65
2018-04-24T12:08:01.656Z,1015.62
2018-04-24T12:09:23.483Z,1015.66
2018-04-24T12:10:45.052Z,1015.61
2018-04-24T12:12:07.124Z,1015.6
2018-04-24T12:13:28.672Z,1015.7
2018-04-24T12:14:50.760Z,1015.72
2018-04-24T12:16:12.847Z,1015.78
2018-04-24T12:17:34.932Z,1015.75
2018-04-24T12:18:57.011Z,1015.77
2018-04-24T12:20:18.838Z,1015.69
2018-04-24T12:21:40.685Z,1015.7
2018-04-24T12:23:02.787Z,1015.78
2018-04-24T12:24:24.642Z,1015.78
2018-04-24T12:25:46.676Z,1015.77
2018-04-24T12:27:08.507Z,1015.82
2018-04-24T12:28:30.574Z,1015.71
2018-04-24T12:29:52.660Z,1015.71
2018-04-24T12:31:14.742Z,1015.71
2018-04-24T12:32:36.630Z,1015.73
2018-04-24T12:33:58.734Z,1015.71
2018-04-24T12:35:20.303Z,1015.75
2018-04-24T12:36:42.150Z,1015.68
2018-04-24T12:38:03.957Z,1015.69
2018-04-24T12:39:25.779Z,1015.67
2018-04-24T12:40:47.867Z,1015.68
2018-04-24T12:42:09.680Z,1015.69
2018-04-24T12:43:31.231Z,1015.69
2018-04-24T12:44:53.312Z,1015.63
2018-04-24T12:46:15.513Z,1015.67
2018-04-24T12:47:37.345Z,1015.6
2018-04-24T12:48:59.407Z,1015.65
2018-04-24T12:50:21.491Z,1015.63
2018-04-24T12:51:43.583Z,1015.55
2018-04-24T12:53:05.824Z,1015.59
2018-04-24T12:54:27.650Z,1015.49
2018-04-24T12:55:49.481Z,1015.61
2018-04-24T12:57:11.578Z,1015.52
2018-04-24T12:58:33.692Z,1015.52
2018-04-24T12:59:55.526Z,1015.53
2018-04-24T13:01:17.620Z,1015.53
2018-04-24T13:02:39.427Z,1015.46
2018-04-24T13:04:01.518Z,1015.54
2018-04-24T13:05:23.599Z,1015.5
2018-04-24T13:06:45.671Z,1015.46
2018-04-24T13:08:07.503Z,1015.49
2018-04-24T13:09:29.304Z,1015.47
2018-04-24T13:10:51.215Z,1015.51
2018-04-24T13:12:12.792Z,1015.46
2018-04-24T13:13:34.624Z,1015.49
2018-04-24T13:14:56.704Z,1015.47
2018-04-24T13:16:18.532Z,1015.48
2018-04-24T13:17:40.084Z,1015.41
2018-04-24T13:19:01.918Z,1015.48
2018-04-24T13:20:23.778Z,1015.46
2018-04-24T13:21:45.359Z,1015.43
2018-04-24T13:23:07.209Z,1015.43
2018-04-24T13:24:28.774Z,1015.39
2018-04-24T13:25:50.418Z,1015.36
2018-04-24T13:27:12.252Z,1015.34
2018-04-24T13:28:34.356Z,1015.31
2018-04-24T13:29:56.174Z,1015.34
2018-04-24T13:31:17.806Z,1015.29
2018-04-24T13:32:39.708Z,1015.31
2018-04-24T13:34:01.814Z,1015.24
2018-04-24T13:35:23.903Z,1015.27
2018-04-24T13:36:46.010Z,1015.2
2018-04-24T13:38:08.122Z,1015.21
2018-04-24T13:39:30.200Z,1015.2
2018-04-24T13:40:52.044Z,1015.21
2018-04-24T13:42:14.395Z,1015.18
2018-04-24T13:43:36.506Z,1015.14
2018-04-24T13:44:58.071Z,1015.13
2018-04-24T13:46:19.874Z,1015.15
2018-04-24T13:47:41.973Z,1015.15
2018-04-24T13:49:03.531Z,1015.11
2018-04-24T13:50:25.351Z,1015.17
2018-04-24T13:51:47.446Z,1015.03
2018-04-24T13:53:09.553Z,1015.07
2018-04-24T13:54:31.403Z,1015.1
2018-04-24T13:55:52.693Z,1015.09
2018-04-24T13:57:14.772Z,1015.02
2018-04-24T13:58:36.869Z,1015.05
2018-04-24T13:59:59.028Z,1015.03
2018-04-24T14:01:21.145Z,1015.04
2018-04-24T14:02:43.263Z,1014.93
2018-04-24T14:04:05.320Z,1014.96
2018-04-24T14:05:27.211Z,1014.93
2018-04-24T14:06:49.014Z,1014.95
2018-04-24T14:08:10.596Z,1014.93
2018-04-24T14:09:32.415Z,1014.92
2018-04-24T14:10:54.261Z,1014.94
2018-04-24T14:12:15.886Z,1014.95
2018-04-24T14:13:37.711Z,1014.94
2018-04-24T14:14:59.271Z,1014.87
2018-04-24T14:16:21.355Z,1014.93
2018-04-24T14:17:43.432Z,1014.91
2018-04-24T14:19:05.281Z,1014.89
2018-04-24T14:20:27.438Z,1014.86
2018-04-24T14:21:49.287Z,1014.88
2018-04-24T14:23:11.183Z,1014.82
2018-04-24T14:24:32.982Z,1014.83
2018-04-24T14:25:55.055Z,1014.89
2018-04-24T14:27:16.607Z,1014.97
2018-04-24T14:28:38.423Z,1014.92
2018-04-24T14:30:00.225Z,1014.92
2018-04-24T14:31:22.326Z,1014.86
2018-04-24T14:32:44.165Z,1014.92
2018-04-24T14:34:05.982Z,1014.87
2018-04-24T14:35:28.192Z,1014.82
2018-04-24T14:36:50.282Z,1014.85
2018-04-24T14:38:12.614Z,1014.73
2018-04-24T14:39:34.421Z,1014.76
2018-04-24T14:40:56.236Z,1014.72
2018-04-24T14:42:18.070Z,1014.77
2018-04-24T14:43:40.239Z,1014.7
2018-04-24T14:45:02.092Z,1014.67
2018-04-24T14:46:23.932Z,1014.69
2018-04-24T14:47:46.020Z,1014.72
2018-04-24T14:49:08.128Z,1014.63
2018-04-24T14:50:30.223Z,1014.67
2018-04-24T14:51:52.330Z,1014.64
2018-04-24T14:53:14.453Z,1014.66
2018-04-24T14:54:36.550Z,1014.68
2018-04-24T14:55:58.398Z,1014.7
2018-04-24T14:57:19.965Z,1014.75
2018-04-24T14:58:41.516Z,1014.76
2018-04-24T15:00:03.646Z,1014.74
2018-04-24T15:01:25.751Z,1014.73
2018-04-24T15:02:47.841Z,1014.77
2018-04-24T15:04:09.406Z,1014.87
2018-04-24T15:05:31.477Z,1014.74
2018-04-24T15:06:53.543Z,1014.72
2018-04-24T15:08:15.250Z,1014.77
2018-04-24T15:09:37.334Z,1014.67
2018-04-24T15:10:59.430Z,1014.73
2018-04-24T15:12:21.252Z,1014.69
2018-04-24T15:13:43.062Z,1014.68
2018-04-24T15:15:05.158Z,1014.65
2018-04-24T15:16:26.975Z,1014.72
2018-04-24T15:17:49.063Z,1014.7
2018-04-24T15:19:11.153Z,1014.63
2018-04-24T15:20:33.027Z,1014.64
2018-04-24T15:21:55.103Z,1014.61
2018-04-24T15:23:16.668Z,1014.57
2018-04-24T15:24:38.590Z,1014.58
2018-04-24T15:26:00.668Z,1014.51
2018-04-24T15:27:22.493Z,1014.57
2018-04-24T15:28:44.594Z,1014.49
2018-04-24T15:30:06.410Z,1014.5
2018-04-24T15:31:28.568Z,1014.5
2018-04-24T15:32:50.682Z,1014.52
2018-04-24T15:34:12.536Z,1014.47
2018-04-24T15:35:34.393Z,1014.42
2018-04-24T15:36:56.508Z,1014.4
2018-04-24T15:38:18.627Z,1014.4
2018-04-24T15:39:40.743Z,1014.41
2018-04-24T15:41:02.611Z,1014.44
2018-04-24T15:42:24.441Z,1014.45
2018-04-24T15:43:46.289Z,1014.45
2018-04-24T15:45:08.411Z,1014.42
2018-04-24T15:46:30.528Z,1014.46
2018-04-24T15:47:52.349Z,1014.45
2018-04-24T15:49:14.401Z,1014.48
2018-04-24T15:50:36.785Z,1014.45
2018-04-24T15:51:58.893Z,1014.5
2018-04-24T15:53:20.720Z,1014.51
2018-04-24T15:54:42.571Z,1014.51
2018-04-24T15:56:04.863Z,1014.47
2018-04-24T15:57:26.435Z,1014.43
2018-04-24T15:58:48.264Z,1014.45
2018-04-24T16:00:10.076Z,1014.46
2018-04-24T16:01:32.173Z,1014.42
2018-04-24T16:02:54.304Z,1014.41
2018-04-24T16:04:16.488Z,1014.36
2018-04-24T16:05:38.594Z,1014.27
2018-04-24T16:07:00.751Z,1014.27
2018-04-24T16:08:22.847Z,1014.25
2018-04-24T16:09:44.935Z,1014.3
2018-04-24T16:11:07.036Z,1014.23
2018-04-24T16:12:29.132Z,1014.16
2018-04-24T16:13:51.256Z,1014.14
2018-04-24T16:15:13.352Z,1014.13
2018-04-24T16:16:35.464Z,1014.21
2018-04-24T16:17:57.305Z,1014.23
2018-04-24T16:19:19.150Z,1014.22
2018-04-24T16:20:41.759Z,1014.23
2018-04-24T16:22:03.336Z,1014.17
2018-04-24T16:23:25.436Z,1014.22
2018-04-24T16:24:47.516Z,1014.15
2018-04-24T16:26:09.069Z,1014.17
2018-04-24T16:27:30.911Z,1014.14
2018-04-24T16:28:53.019Z,1014.07
2018-04-24T16:30:14.866Z,1014.03
2018-04-24T16:31:36.967Z,1014.03
2018-04-24T16:32:58.817Z,1014.09
2018-04-24T16:34:20.669Z,1014.04